sensor_id;sensor_type;location;lat;lon;timestamp;P1;durP1;ratioP1;P2;durP2;ratioP2
19251;SDS011;9760;50.944;5.304;2023-05-16T00:00:19;24.53;;;3.73;;
19251;SDS011;9760;50.944;5.304;2023-05-16T00:02:45;19.43;;;3.63;;
19251;SDS011;9760;50.944;5.304;2023-05-16T00:05:11;21.63;;;3.73;;
19251;SDS011;9760;50.944;5.304;2023-05-16T00:07:43;23.33;;;3.60;;
19251;SDS011;9760;50.944;5.304;2023-05-16T00:10:10;20.77;;;3.00;;
19251;SDS011;9760;50.944;5.304;2023-05-16T00:12:36;19.67;;;3.77;;
19251;SDS011;9760;50.944;5.304;2023-05-16T00:15:04;27.17;;;3.53;;
19251;SDS011;9760;50.944;5.304;2023-05-16T00:17:33;23.13;;;3.67;;
19251;SDS011;9760;50.944;5.304;2023-05-16T00:20:00;19.90;;;4.10;;
19251;SDS011;9760;50.944;5.304;2023-05-16T00:22:35;19.00;;;3.37;;
19251;SDS011;9760;50.944;5.304;2023-05-16T00:25:01;19.13;;;3.07;;
19251;SDS011;9760;50.944;5.304;2023-05-16T00:27:27;16.33;;;3.30;;
19251;SDS011;9760;50.944;5.304;2023-05-16T00:29:53;23.43;;;3.80;;
19251;SDS011;9760;50.944;5.304;2023-05-16T00:32:19;17.63;;;3.40;;
19251;SDS011;9760;50.944;5.304;2023-05-16T00:34:45;27.30;;;3.10;;
19251;SDS011;9760;50.944;5.304;2023-05-16T00:37:10;17.53;;;3.83;;
19251;SDS011;9760;50.944;5.304;2023-05-16T00:39:36;22.73;;;4.03;;
19251;SDS011;9760;50.944;5.304;2023-05-16T00:42:02;24.90;;;3.83;;
19251;SDS011;9760;50.944;5.304;2023-05-16T00:44:28;16.73;;;2.83;;
19251;SDS011;9760;50.944;5.304;2023-05-16T00:46:55;25.67;;;3.27;;
19251;SDS011;9760;50.944;5.304;2023-05-16T00:49:21;16.40;;;3.10;;
19251;SDS011;9760;50.944;5.304;2023-05-16T00:51:47;19.43;;;4.07;;
19251;SDS011;9760;50.944;5.304;2023-05-16T00:54:12;23.03;;;2.70;;
19251;SDS011;9760;50.944;5.304;2023-05-16T00:56:39;20.57;;;3.23;;
19251;SDS011;9760;50.944;5.304;2023-05-16T00:59:05;23.70;;;3.30;;
19251;SDS011;9760;50.944;5.304;2023-05-16T01:01:31;17.07;;;3.37;;
19251;SDS011;9760;50.944;5.304;2023-05-16T01:03:57;23.80;;;3.23;;
19251;SDS011;9760;50.944;5.304;2023-05-16T01:06:24;21.60;;;3.43;;
19251;SDS011;9760;50.944;5.304;2023-05-16T01:08:50;21.57;;;3.63;;
19251;SDS011;9760;50.944;5.304;2023-05-16T01:19:50;11.83;;;3.00;;
19251;SDS011;9760;50.944;5.304;2023-05-16T01:28:09;24.50;;;3.13;;
19251;SDS011;9760;50.944;5.304;2023-05-16T01:30:37;22.00;;;3.00;;
19251;SDS011;9760;50.944;5.304;2023-05-16T01:33:04;18.27;;;3.27;;
19251;SDS011;9760;50.944;5.304;2023-05-16T01:35:30;23.03;;;3.07;;
19251;SDS011;9760;50.944;5.304;2023-05-16T01:38:15;23.23;;;3.50;;
19251;SDS011;9760;50.944;5.304;2023-05-16T01:40:58;20.70;;;3.67;;
19251;SDS011;9760;50.944;5.304;2023-05-16T01:43:33;26.20;;;3.57;;
19251;SDS011;9760;50.944;5.304;2023-05-16T01:46:11;21.53;;;3.10;;
19251;SDS011;9760;50.944;5.304;2023-05-16T01:48:43;14.43;;;2.47;;
19251;SDS011;9760;50.944;5.304;2023-05-16T01:51:20;20.43;;;3.73;;
19251;SDS011;9760;50.944;5.304;2023-05-16T01:53:49;14.47;;;2.90;;
19251;SDS011;9760;50.944;5.304;2023-05-16T01:56:16;22.13;;;3.20;;
19251;SDS011;9760;50.944;5.304;2023-05-16T01:58:42;20.63;;;3.07;;
19251;SDS011;9760;50.944;5.304;2023-05-16T02:01:08;22.97;;;2.87;;
19251;SDS011;9760;50.944;5.304;2023-05-16T02:03:35;18.30;;;2.70;;
19251;SDS011;9760;50.944;5.304;2023-05-16T02:06:01;19.00;;;3.00;;
19251;SDS011;9760;50.944;5.304;2023-05-16T02:08:27;21.13;;;2.70;;
19251;SDS011;9760;50.944;5.304;2023-05-16T02:10:53;21.03;;;2.67;;
19251;SDS011;9760;50.944;5.304;2023-05-16T02:13:19;19.87;;;2.40;;
19251;SDS011;9760;50.944;5.304;2023-05-16T02:15:44;16.53;;;2.47;;
19251;SDS011;9760;50.944;5.304;2023-05-16T02:18:10;20.10;;;3.07;;
19251;SDS011;9760;50.944;5.304;2023-05-16T02:20:36;20.90;;;2.87;;
19251;SDS011;9760;50.944;5.304;2023-05-16T02:23:02;23.43;;;3.23;;
19251;SDS011;9760;50.944;5.304;2023-05-16T02:25:28;18.50;;;3.57;;
19251;SDS011;9760;50.944;5.304;2023-05-16T02:27:53;26.37;;;2.80;;
19251;SDS011;9760;50.944;5.304;2023-05-16T02:30:20;24.33;;;2.30;;
19251;SDS011;9760;50.944;5.304;2023-05-16T02:32:46;25.53;;;3.17;;
19251;SDS011;9760;50.944;5.304;2023-05-16T02:35:13;22.93;;;3.27;;
19251;SDS011;9760;50.944;5.304;2023-05-16T02:37:39;22.63;;;3.20;;
19251;SDS011;9760;50.944;5.304;2023-05-16T02:40:05;15.70;;;2.17;;
19251;SDS011;9760;50.944;5.304;2023-05-16T02:42:32;20.70;;;2.63;;
19251;SDS011;9760;50.944;5.304;2023-05-16T02:44:57;15.70;;;2.57;;
19251;SDS011;9760;50.944;5.304;2023-05-16T02:47:23;14.60;;;2.60;;
19251;SDS011;9760;50.944;5.304;2023-05-16T02:49:49;22.53;;;2.73;;
19251;SDS011;9760;50.944;5.304;2023-05-16T02:52:16;17.83;;;3.27;;
19251;SDS011;9760;50.944;5.304;2023-05-16T02:54:42;18.53;;;2.67;;
19251;SDS011;9760;50.944;5.304;2023-05-16T02:57:08;16.27;;;2.37;;
19251;SDS011;9760;50.944;5.304;2023-05-16T02:59:34;24.53;;;3.17;;
19251;SDS011;9760;50.944;5.304;2023-05-16T03:02:00;15.50;;;2.53;;
19251;SDS011;9760;50.944;5.304;2023-05-16T03:04:26;17.70;;;2.50;;
19251;SDS011;9760;50.944;5.304;2023-05-16T03:06:52;22.50;;;3.23;;
19251;SDS011;9760;50.944;5.304;2023-05-16T03:09:17;15.93;;;2.53;;
19251;SDS011;9760;50.944;5.304;2023-05-16T03:11:44;16.27;;;2.27;;
19251;SDS011;9760;50.944;5.304;2023-05-16T03:14:10;20.43;;;3.53;;
19251;SDS011;9760;50.944;5.304;2023-05-16T03:16:36;17.23;;;2.17;;
19251;SDS011;9760;50.944;5.304;2023-05-16T03:19:02;22.43;;;3.00;;
19251;SDS011;9760;50.944;5.304;2023-05-16T03:21:29;18.40;;;2.50;;
19251;SDS011;9760;50.944;5.304;2023-05-16T03:23:55;22.20;;;2.57;;
19251;SDS011;9760;50.944;5.304;2023-05-16T03:26:22;18.87;;;2.37;;
19251;SDS011;9760;50.944;5.304;2023-05-16T03:28:48;16.20;;;3.40;;
19251;SDS011;9760;50.944;5.304;2023-05-16T03:31:15;21.57;;;2.50;;
19251;SDS011;9760;50.944;5.304;2023-05-16T03:33:41;9.23;;;2.00;;
19251;SDS011;9760;50.944;5.304;2023-05-16T03:36:07;21.23;;;3.60;;
19251;SDS011;9760;50.944;5.304;2023-05-16T03:38:33;24.03;;;3.07;;
19251;SDS011;9760;50.944;5.304;2023-05-16T03:40:59;13.93;;;2.37;;
19251;SDS011;9760;50.944;5.304;2023-05-16T03:43:25;13.07;;;2.33;;
19251;SDS011;9760;50.944;5.304;2023-05-16T03:45:51;16.40;;;2.37;;
19251;SDS011;9760;50.944;5.304;2023-05-16T03:48:17;20.17;;;2.87;;
19251;SDS011;9760;50.944;5.304;2023-05-16T03:50:42;9.70;;;2.30;;
19251;SDS011;9760;50.944;5.304;2023-05-16T03:53:08;13.90;;;2.80;;
19251;SDS011;9760;50.944;5.304;2023-05-16T03:55:34;18.20;;;2.57;;
19251;SDS011;9760;50.944;5.304;2023-05-16T03:58:00;20.93;;;2.93;;
19251;SDS011;9760;50.944;5.304;2023-05-16T04:00:26;25.20;;;2.70;;
19251;SDS011;9760;50.944;5.304;2023-05-16T04:02:52;18.47;;;2.30;;
19251;SDS011;9760;50.944;5.304;2023-05-16T04:05:17;16.50;;;2.30;;
19251;SDS011;9760;50.944;5.304;2023-05-16T04:07:43;23.60;;;2.93;;
19251;SDS011;9760;50.944;5.304;2023-05-16T04:10:09;17.93;;;2.60;;
19251;SDS011;9760;50.944;5.304;2023-05-16T04:12:35;17.90;;;2.60;;
19251;SDS011;9760;50.944;5.304;2023-05-16T04:15:02;13.80;;;2.67;;
19251;SDS011;9760;50.944;5.304;2023-05-16T04:17:28;17.30;;;2.73;;
19251;SDS011;9760;50.944;5.304;2023-05-16T04:19:54;23.57;;;2.37;;
19251;SDS011;9760;50.944;5.304;2023-05-16T04:22:23;25.10;;;2.63;;
19251;SDS011;9760;50.944;5.304;2023-05-16T04:24:48;12.87;;;2.73;;
19251;SDS011;9760;50.944;5.304;2023-05-16T04:27:14;12.47;;;2.83;;
19251;SDS011;9760;50.944;5.304;2023-05-16T04:29:40;20.30;;;2.87;;
19251;SDS011;9760;50.944;5.304;2023-05-16T04:32:06;14.73;;;2.87;;
19251;SDS011;9760;50.944;5.304;2023-05-16T04:34:32;12.10;;;2.37;;
19251;SDS011;9760;50.944;5.304;2023-05-16T04:37:01;15.37;;;2.90;;
19251;SDS011;9760;50.944;5.304;2023-05-16T04:39:31;13.00;;;2.40;;
19251;SDS011;9760;50.944;5.304;2023-05-16T04:41:58;23.13;;;3.50;;
19251;SDS011;9760;50.944;5.304;2023-05-16T04:44:26;24.20;;;3.30;;
19251;SDS011;9760;50.944;5.304;2023-05-16T04:46:52;24.70;;;3.20;;
19251;SDS011;9760;50.944;5.304;2023-05-16T04:49:18;17.33;;;3.00;;
19251;SDS011;9760;50.944;5.304;2023-05-16T04:51:44;17.50;;;3.13;;
19251;SDS011;9760;50.944;5.304;2023-05-16T04:54:11;11.77;;;2.03;;
19251;SDS011;9760;50.944;5.304;2023-05-16T04:56:37;17.10;;;3.17;;
19251;SDS011;9760;50.944;5.304;2023-05-16T04:59:02;19.27;;;3.10;;
19251;SDS011;9760;50.944;5.304;2023-05-16T05:01:28;15.60;;;2.60;;
19251;SDS011;9760;50.944;5.304;2023-05-16T05:03:54;20.90;;;3.23;;
19251;SDS011;9760;50.944;5.304;2023-05-16T05:06:20;19.47;;;2.60;;
19251;SDS011;9760;50.944;5.304;2023-05-16T05:08:46;18.30;;;2.97;;
19251;SDS011;9760;50.944;5.304;2023-05-16T05:11:12;17.27;;;2.60;;
19251;SDS011;9760;50.944;5.304;2023-05-16T05:13:38;18.03;;;2.77;;
19251;SDS011;9760;50.944;5.304;2023-05-16T05:16:03;19.40;;;2.73;;
19251;SDS011;9760;50.944;5.304;2023-05-16T05:18:30;19.63;;;2.70;;
19251;SDS011;9760;50.944;5.304;2023-05-16T05:20:56;20.93;;;2.90;;
19251;SDS011;9760;50.944;5.304;2023-05-16T05:23:22;14.67;;;2.77;;
19251;SDS011;9760;50.944;5.304;2023-05-16T05:25:48;22.57;;;3.13;;
19251;SDS011;9760;50.944;5.304;2023-05-16T05:28:14;20.30;;;2.87;;
19251;SDS011;9760;50.944;5.304;2023-05-16T05:30:40;13.10;;;2.70;;
19251;SDS011;9760;50.944;5.304;2023-05-16T05:33:06;20.60;;;2.97;;
19251;SDS011;9760;50.944;5.304;2023-05-16T05:35:31;18.13;;;2.50;;
19251;SDS011;9760;50.944;5.304;2023-05-16T05:37:57;18.80;;;2.73;;
19251;SDS011;9760;50.944;5.304;2023-05-16T05:40:23;21.33;;;2.50;;
19251;SDS011;9760;50.944;5.304;2023-05-16T05:42:48;26.40;;;3.77;;
19251;SDS011;9760;50.944;5.304;2023-05-16T05:45:14;14.30;;;2.40;;
19251;SDS011;9760;50.944;5.304;2023-05-16T05:47:40;19.00;;;2.50;;
19251;SDS011;9760;50.944;5.304;2023-05-16T05:50:06;18.13;;;3.03;;
19251;SDS011;9760;50.944;5.304;2023-05-16T05:52:35;17.03;;;3.97;;
19251;SDS011;9760;50.944;5.304;2023-05-16T05:55:01;15.00;;;3.17;;
19251;SDS011;9760;50.944;5.304;2023-05-16T05:57:27;12.27;;;2.80;;
19251;SDS011;9760;50.944;5.304;2023-05-16T05:59:52;18.20;;;2.87;;
19251;SDS011;9760;50.944;5.304;2023-05-16T06:02:18;18.90;;;2.77;;
19251;SDS011;9760;50.944;5.304;2023-05-16T06:04:44;17.77;;;2.70;;
19251;SDS011;9760;50.944;5.304;2023-05-16T06:07:10;22.03;;;3.47;;
19251;SDS011;9760;50.944;5.304;2023-05-16T06:09:36;17.77;;;3.03;;
19251;SDS011;9760;50.944;5.304;2023-05-16T06:12:01;18.10;;;2.90;;
19251;SDS011;9760;50.944;5.304;2023-05-16T06:14:28;21.63;;;3.20;;
19251;SDS011;9760;50.944;5.304;2023-05-16T06:16:53;14.50;;;2.60;;
19251;SDS011;9760;50.944;5.304;2023-05-16T06:19:19;14.80;;;2.43;;
19251;SDS011;9760;50.944;5.304;2023-05-16T06:21:45;8.97;;;2.07;;
19251;SDS011;9760;50.944;5.304;2023-05-16T06:24:10;17.70;;;3.03;;
19251;SDS011;9760;50.944;5.304;2023-05-16T06:26:36;19.10;;;2.30;;
19251;SDS011;9760;50.944;5.304;2023-05-16T06:29:02;15.13;;;2.00;;
19251;SDS011;9760;50.944;5.304;2023-05-16T06:31:27;18.10;;;2.53;;
19251;SDS011;9760;50.944;5.304;2023-05-16T06:33:53;18.57;;;2.20;;
19251;SDS011;9760;50.944;5.304;2023-05-16T06:36:19;13.07;;;2.47;;
19251;SDS011;9760;50.944;5.304;2023-05-16T06:38:44;19.03;;;2.53;;
19251;SDS011;9760;50.944;5.304;2023-05-16T06:41:10;15.17;;;2.40;;
19251;SDS011;9760;50.944;5.304;2023-05-16T06:43:36;20.13;;;2.23;;
19251;SDS011;9760;50.944;5.304;2023-05-16T06:46:01;13.53;;;2.40;;
19251;SDS011;9760;50.944;5.304;2023-05-16T06:48:28;14.80;;;2.17;;
19251;SDS011;9760;50.944;5.304;2023-05-16T06:50:54;16.93;;;2.10;;
19251;SDS011;9760;50.944;5.304;2023-05-16T06:53:20;16.97;;;2.60;;
19251;SDS011;9760;50.944;5.304;2023-05-16T06:55:45;17.80;;;3.23;;
19251;SDS011;9760;50.944;5.304;2023-05-16T06:58:11;11.30;;;2.00;;
19251;SDS011;9760;50.944;5.304;2023-05-16T07:00:37;8.80;;;1.70;;
19251;SDS011;9760;50.944;5.304;2023-05-16T07:03:03;16.67;;;2.27;;
19251;SDS011;9760;50.944;5.304;2023-05-16T07:05:28;11.77;;;1.70;;
19251;SDS011;9760;50.944;5.304;2023-05-16T07:07:54;23.73;;;2.90;;
19251;SDS011;9760;50.944;5.304;2023-05-16T07:10:20;17.57;;;2.00;;
19251;SDS011;9760;50.944;5.304;2023-05-16T07:12:46;9.77;;;1.50;;
19251;SDS011;9760;50.944;5.304;2023-05-16T07:15:12;12.43;;;2.80;;
19251;SDS011;9760;50.944;5.304;2023-05-16T07:17:38;11.77;;;1.50;;
19251;SDS011;9760;50.944;5.304;2023-05-16T07:20:05;14.20;;;2.30;;
19251;SDS011;9760;50.944;5.304;2023-05-16T07:22:32;20.60;;;2.30;;
19251;SDS011;9760;50.944;5.304;2023-05-16T07:24:58;10.77;;;1.73;;
19251;SDS011;9760;50.944;5.304;2023-05-16T07:27:25;9.13;;;1.87;;
19251;SDS011;9760;50.944;5.304;2023-05-16T07:29:51;12.33;;;2.00;;
19251;SDS011;9760;50.944;5.304;2023-05-16T07:32:17;12.07;;;1.70;;
19251;SDS011;9760;50.944;5.304;2023-05-16T07:34:43;9.77;;;2.33;;
19251;SDS011;9760;50.944;5.304;2023-05-16T07:37:08;9.30;;;1.87;;
19251;SDS011;9760;50.944;5.304;2023-05-16T07:39:39;10.93;;;1.90;;
19251;SDS011;9760;50.944;5.304;2023-05-16T07:42:06;9.90;;;1.90;;
19251;SDS011;9760;50.944;5.304;2023-05-16T07:44:32;10.43;;;2.00;;
19251;SDS011;9760;50.944;5.304;2023-05-16T07:46:58;13.27;;;2.10;;
19251;SDS011;9760;50.944;5.304;2023-05-16T07:49:23;10.10;;;1.80;;
19251;SDS011;9760;50.944;5.304;2023-05-16T07:51:49;13.17;;;2.20;;
19251;SDS011;9760;50.944;5.304;2023-05-16T07:54:15;13.53;;;1.80;;
19251;SDS011;9760;50.944;5.304;2023-05-16T07:56:41;16.23;;;1.73;;
19251;SDS011;9760;50.944;5.304;2023-05-16T07:59:06;11.23;;;1.73;;
19251;SDS011;9760;50.944;5.304;2023-05-16T08:01:32;6.20;;;1.77;;
19251;SDS011;9760;50.944;5.304;2023-05-16T08:03:58;17.10;;;2.13;;
19251;SDS011;9760;50.944;5.304;2023-05-16T08:06:23;13.10;;;2.13;;
19251;SDS011;9760;50.944;5.304;2023-05-16T08:08:49;9.60;;;1.80;;
19251;SDS011;9760;50.944;5.304;2023-05-16T08:11:15;11.40;;;1.37;;
19251;SDS011;9760;50.944;5.304;2023-05-16T08:13:42;8.23;;;1.50;;
19251;SDS011;9760;50.944;5.304;2023-05-16T08:16:08;9.33;;;2.40;;
19251;SDS011;9760;50.944;5.304;2023-05-16T08:18:33;8.80;;;1.70;;
19251;SDS011;9760;50.944;5.304;2023-05-16T08:20:59;8.53;;;1.20;;
19251;SDS011;9760;50.944;5.304;2023-05-16T08:23:25;11.13;;;1.60;;
19251;SDS011;9760;50.944;5.304;2023-05-16T08:25:50;11.07;;;1.90;;
19251;SDS011;9760;50.944;5.304;2023-05-16T08:28:18;13.43;;;1.50;;
19251;SDS011;9760;50.944;5.304;2023-05-16T08:30:44;10.03;;;1.47;;
19251;SDS011;9760;50.944;5.304;2023-05-16T08:33:10;9.17;;;1.67;;
19251;SDS011;9760;50.944;5.304;2023-05-16T08:35:35;8.93;;;1.90;;
19251;SDS011;9760;50.944;5.304;2023-05-16T08:38:01;10.40;;;1.13;;
19251;SDS011;9760;50.944;5.304;2023-05-16T08:40:27;7.03;;;1.20;;
19251;SDS011;9760;50.944;5.304;2023-05-16T08:42:53;6.20;;;1.47;;
19251;SDS011;9760;50.944;5.304;2023-05-16T08:45:19;11.23;;;1.33;;
19251;SDS011;9760;50.944;5.304;2023-05-16T08:47:47;6.10;;;1.00;;
19251;SDS011;9760;50.944;5.304;2023-05-16T08:50:15;9.10;;;1.07;;
19251;SDS011;9760;50.944;5.304;2023-05-16T08:52:41;8.10;;;2.07;;
19251;SDS011;9760;50.944;5.304;2023-05-16T08:55:08;14.53;;;1.93;;
19251;SDS011;9760;50.944;5.304;2023-05-16T08:57:35;5.50;;;1.47;;
19251;SDS011;9760;50.944;5.304;2023-05-16T09:00:02;11.03;;;2.13;;
19251;SDS011;9760;50.944;5.304;2023-05-16T09:02:34;11.60;;;1.50;;
19251;SDS011;9760;50.944;5.304;2023-05-16T09:05:00;9.30;;;1.63;;
19251;SDS011;9760;50.944;5.304;2023-05-16T09:07:27;4.47;;;1.43;;
19251;SDS011;9760;50.944;5.304;2023-05-16T09:09:53;9.03;;;1.47;;
19251;SDS011;9760;50.944;5.304;2023-05-16T09:12:19;6.13;;;1.00;;
19251;SDS011;9760;50.944;5.304;2023-05-16T09:14:46;6.03;;;1.30;;
19251;SDS011;9760;50.944;5.304;2023-05-16T09:17:11;8.10;;;1.43;;
19251;SDS011;9760;50.944;5.304;2023-05-16T09:19:40;4.33;;;1.23;;
19251;SDS011;9760;50.944;5.304;2023-05-16T09:22:08;11.77;;;1.50;;
19251;SDS011;9760;50.944;5.304;2023-05-16T09:24:41;7.50;;;1.53;;
19251;SDS011;9760;50.944;5.304;2023-05-16T09:27:08;6.23;;;1.90;;
19251;SDS011;9760;50.944;5.304;2023-05-16T09:29:35;7.83;;;0.83;;
19251;SDS011;9760;50.944;5.304;2023-05-16T09:32:19;9.47;;;1.30;;
19251;SDS011;9760;50.944;5.304;2023-05-16T09:34:45;8.03;;;1.10;;
19251;SDS011;9760;50.944;5.304;2023-05-16T09:37:16;8.60;;;1.37;;
19251;SDS011;9760;50.944;5.304;2023-05-16T09:39:46;8.03;;;1.03;;
19251;SDS011;9760;50.944;5.304;2023-05-16T09:42:13;8.43;;;2.07;;
19251;SDS011;9760;50.944;5.304;2023-05-16T09:44:47;4.50;;;1.13;;
19251;SDS011;9760;50.944;5.304;2023-05-16T09:47:17;7.27;;;0.97;;
19251;SDS011;9760;50.944;5.304;2023-05-16T09:49:44;2.50;;;0.90;;
19251;SDS011;9760;50.944;5.304;2023-05-16T09:52:12;8.50;;;1.10;;
19251;SDS011;9760;50.944;5.304;2023-05-16T09:54:38;8.23;;;1.00;;
19251;SDS011;9760;50.944;5.304;2023-05-16T09:57:04;7.90;;;1.10;;
19251;SDS011;9760;50.944;5.304;2023-05-16T09:59:31;10.03;;;1.00;;
19251;SDS011;9760;50.944;5.304;2023-05-16T10:02:00;7.13;;;1.13;;
19251;SDS011;9760;50.944;5.304;2023-05-16T10:04:27;5.13;;;0.70;;
19251;SDS011;9760;50.944;5.304;2023-05-16T10:06:53;5.57;;;1.40;;
19251;SDS011;9760;50.944;5.304;2023-05-16T10:09:23;4.00;;;1.20;;
19251;SDS011;9760;50.944;5.304;2023-05-16T10:11:50;4.57;;;1.10;;
19251;SDS011;9760;50.944;5.304;2023-05-16T10:14:17;7.40;;;1.43;;
19251;SDS011;9760;50.944;5.304;2023-05-16T10:16:43;5.13;;;1.10;;
19251;SDS011;9760;50.944;5.304;2023-05-16T10:19:12;8.30;;;1.40;;
19251;SDS011;9760;50.944;5.304;2023-05-16T10:21:39;6.33;;;1.00;;
19251;SDS011;9760;50.944;5.304;2023-05-16T10:24:10;8.53;;;1.03;;
19251;SDS011;9760;50.944;5.304;2023-05-16T10:26:39;3.20;;;0.90;;
19251;SDS011;9760;50.944;5.304;2023-05-16T10:29:04;4.80;;;1.30;;
19251;SDS011;9760;50.944;5.304;2023-05-16T10:31:31;6.00;;;1.30;;
19251;SDS011;9760;50.944;5.304;2023-05-16T10:33:57;3.13;;;1.10;;
19251;SDS011;9760;50.944;5.304;2023-05-16T10:36:23;4.67;;;1.50;;
19251;SDS011;9760;50.944;5.304;2023-05-16T10:38:49;9.83;;;1.73;;
19251;SDS011;9760;50.944;5.304;2023-05-16T10:41:16;10.50;;;1.73;;
19251;SDS011;9760;50.944;5.304;2023-05-16T10:43:43;8.00;;;1.23;;
19251;SDS011;9760;50.944;5.304;2023-05-16T10:46:20;8.40;;;1.30;;
19251;SDS011;9760;50.944;5.304;2023-05-16T10:48:47;11.50;;;1.33;;
19251;SDS011;9760;50.944;5.304;2023-05-16T10:53:51;8.57;;;1.40;;
19251;SDS011;9760;50.944;5.304;2023-05-16T10:56:21;6.57;;;1.17;;
19251;SDS011;9760;50.944;5.304;2023-05-16T10:58:48;7.93;;;1.00;;
19251;SDS011;9760;50.944;5.304;2023-05-16T11:01:27;6.83;;;1.33;;
19251;SDS011;9760;50.944;5.304;2023-05-16T11:06:24;10.43;;;1.30;;
19251;SDS011;9760;50.944;5.304;2023-05-16T11:19:32;21.33;;;1.77;;
19251;SDS011;9760;50.944;5.304;2023-05-16T11:22:07;5.73;;;1.20;;
19251;SDS011;9760;50.944;5.304;2023-05-16T11:24:38;7.13;;;1.20;;
19251;SDS011;9760;50.944;5.304;2023-05-16T11:27:04;5.93;;;1.37;;
19251;SDS011;9760;50.944;5.304;2023-05-16T11:29:31;12.20;;;1.33;;
19251;SDS011;9760;50.944;5.304;2023-05-16T11:31:59;10.77;;;1.17;;
19251;SDS011;9760;50.944;5.304;2023-05-16T11:34:25;13.40;;;1.30;;
19251;SDS011;9760;50.944;5.304;2023-05-16T11:36:51;6.10;;;0.97;;
19251;SDS011;9760;50.944;5.304;2023-05-16T11:39:17;5.47;;;1.07;;
19251;SDS011;9760;50.944;5.304;2023-05-16T11:41:45;13.17;;;1.70;;
19251;SDS011;9760;50.944;5.304;2023-05-16T11:44:11;4.20;;;0.87;;
19251;SDS011;9760;50.944;5.304;2023-05-16T11:46:40;9.40;;;1.60;;
19251;SDS011;9760;50.944;5.304;2023-05-16T11:49:06;5.67;;;0.90;;
19251;SDS011;9760;50.944;5.304;2023-05-16T11:51:38;10.77;;;2.37;;
19251;SDS011;9760;50.944;5.304;2023-05-16T11:54:05;6.40;;;1.07;;
19251;SDS011;9760;50.944;5.304;2023-05-16T11:56:36;4.93;;;1.03;;
19251;SDS011;9760;50.944;5.304;2023-05-16T11:59:02;6.97;;;0.90;;
19251;SDS011;9760;50.944;5.304;2023-05-16T12:01:35;7.60;;;1.10;;
19251;SDS011;9760;50.944;5.304;2023-05-16T12:04:08;3.27;;;1.10;;
19251;SDS011;9760;50.944;5.304;2023-05-16T12:06:35;16.27;;;2.13;;
19251;SDS011;9760;50.944;5.304;2023-05-16T12:09:01;8.70;;;1.10;;
19251;SDS011;9760;50.944;5.304;2023-05-16T12:11:35;7.43;;;1.43;;
19251;SDS011;9760;50.944;5.304;2023-05-16T12:14:01;7.60;;;1.33;;
19251;SDS011;9760;50.944;5.304;2023-05-16T12:16:28;4.30;;;1.00;;
19251;SDS011;9760;50.944;5.304;2023-05-16T12:18:53;3.43;;;1.00;;
19251;SDS011;9760;50.944;5.304;2023-05-16T12:21:20;6.40;;;1.27;;
19251;SDS011;9760;50.944;5.304;2023-05-16T12:23:45;4.13;;;1.00;;
19251;SDS011;9760;50.944;5.304;2023-05-16T12:26:11;3.93;;;1.10;;
19251;SDS011;9760;50.944;5.304;2023-05-16T12:28:37;4.10;;;0.97;;
19251;SDS011;9760;50.944;5.304;2023-05-16T12:31:05;5.30;;;1.43;;
19251;SDS011;9760;50.944;5.304;2023-05-16T12:33:36;10.93;;;1.80;;
19251;SDS011;9760;50.944;5.304;2023-05-16T12:36:02;5.30;;;1.30;;
19251;SDS011;9760;50.944;5.304;2023-05-16T12:38:28;4.67;;;1.20;;
19251;SDS011;9760;50.944;5.304;2023-05-16T12:40:57;3.67;;;1.20;;
19251;SDS011;9760;50.944;5.304;2023-05-16T12:43:23;6.93;;;1.30;;
19251;SDS011;9760;50.944;5.304;2023-05-16T12:45:49;5.60;;;1.30;;
19251;SDS011;9760;50.944;5.304;2023-05-16T12:48:16;3.97;;;1.20;;
19251;SDS011;9760;50.944;5.304;2023-05-16T12:50:42;4.40;;;1.40;;
19251;SDS011;9760;50.944;5.304;2023-05-16T12:53:14;8.80;;;1.17;;
19251;SDS011;9760;50.944;5.304;2023-05-16T12:55:41;9.83;;;1.90;;
19251;SDS011;9760;50.944;5.304;2023-05-16T12:58:08;11.23;;;1.63;;
19251;SDS011;9760;50.944;5.304;2023-05-16T13:00:34;4.30;;;1.27;;
19251;SDS011;9760;50.944;5.304;2023-05-16T13:03:06;9.50;;;1.60;;
19251;SDS011;9760;50.944;5.304;2023-05-16T13:05:32;13.40;;;2.00;;
19251;SDS011;9760;50.944;5.304;2023-05-16T13:07:58;21.50;;;1.77;;
19251;SDS011;9760;50.944;5.304;2023-05-16T13:10:24;5.37;;;1.70;;
19251;SDS011;9760;50.944;5.304;2023-05-16T13:12:50;10.63;;;1.23;;
19251;SDS011;9760;50.944;5.304;2023-05-16T13:15:16;6.70;;;1.17;;
19251;SDS011;9760;50.944;5.304;2023-05-16T13:17:42;7.57;;;1.50;;
19251;SDS011;9760;50.944;5.304;2023-05-16T13:20:08;4.07;;;1.30;;
19251;SDS011;9760;50.944;5.304;2023-05-16T13:22:39;10.67;;;1.53;;
19251;SDS011;9760;50.944;5.304;2023-05-16T13:25:05;5.60;;;1.60;;
19251;SDS011;9760;50.944;5.304;2023-05-16T13:27:32;4.90;;;1.50;;
19251;SDS011;9760;50.944;5.304;2023-05-16T13:29:58;9.53;;;1.40;;
19251;SDS011;9760;50.944;5.304;2023-05-16T13:32:24;4.63;;;1.33;;
19251;SDS011;9760;50.944;5.304;2023-05-16T13:34:50;5.27;;;1.40;;
19251;SDS011;9760;50.944;5.304;2023-05-16T13:37:16;4.60;;;1.03;;
19251;SDS011;9760;50.944;5.304;2023-05-16T13:39:42;5.33;;;1.23;;
19251;SDS011;9760;50.944;5.304;2023-05-16T13:42:08;8.07;;;0.97;;
19251;SDS011;9760;50.944;5.304;2023-05-16T13:44:34;6.13;;;1.40;;
19251;SDS011;9760;50.944;5.304;2023-05-16T13:47:00;4.47;;;1.33;;
19251;SDS011;9760;50.944;5.304;2023-05-16T13:49:26;4.17;;;1.20;;
19251;SDS011;9760;50.944;5.304;2023-05-16T13:51:52;7.47;;;1.43;;
19251;SDS011;9760;50.944;5.304;2023-05-16T13:54:18;7.90;;;1.23;;
19251;SDS011;9760;50.944;5.304;2023-05-16T13:56:44;3.73;;;1.00;;
19251;SDS011;9760;50.944;5.304;2023-05-16T13:59:10;6.50;;;1.80;;
19251;SDS011;9760;50.944;5.304;2023-05-16T14:01:35;3.53;;;1.40;;
19251;SDS011;9760;50.944;5.304;2023-05-16T14:04:01;4.20;;;1.40;;
19251;SDS011;9760;50.944;5.304;2023-05-16T14:06:27;5.60;;;1.77;;
19251;SDS011;9760;50.944;5.304;2023-05-16T14:08:53;9.53;;;1.30;;
19251;SDS011;9760;50.944;5.304;2023-05-16T14:11:18;6.17;;;1.57;;
19251;SDS011;9760;50.944;5.304;2023-05-16T14:13:47;5.43;;;1.23;;
19251;SDS011;9760;50.944;5.304;2023-05-16T14:16:13;7.13;;;1.53;;
19251;SDS011;9760;50.944;5.304;2023-05-16T14:18:39;4.87;;;1.17;;
19251;SDS011;9760;50.944;5.304;2023-05-16T14:21:05;4.63;;;1.60;;
19251;SDS011;9760;50.944;5.304;2023-05-16T14:23:30;8.87;;;1.97;;
19251;SDS011;9760;50.944;5.304;2023-05-16T14:25:56;6.67;;;1.53;;
19251;SDS011;9760;50.944;5.304;2023-05-16T14:28:22;7.23;;;1.60;;
19251;SDS011;9760;50.944;5.304;2023-05-16T14:30:47;10.30;;;1.70;;
19251;SDS011;9760;50.944;5.304;2023-05-16T14:33:13;7.43;;;1.20;;
19251;SDS011;9760;50.944;5.304;2023-05-16T14:35:39;4.60;;;1.30;;
19251;SDS011;9760;50.944;5.304;2023-05-16T14:38:05;3.90;;;1.40;;
19251;SDS011;9760;50.944;5.304;2023-05-16T14:40:31;9.30;;;1.50;;
19251;SDS011;9760;50.944;5.304;2023-05-16T14:42:58;5.90;;;1.13;;
19251;SDS011;9760;50.944;5.304;2023-05-16T14:45:24;7.30;;;1.17;;
19251;SDS011;9760;50.944;5.304;2023-05-16T14:47:49;3.87;;;1.20;;
19251;SDS011;9760;50.944;5.304;2023-05-16T14:50:16;5.70;;;1.53;;
19251;SDS011;9760;50.944;5.304;2023-05-16T14:52:42;8.13;;;1.73;;
19251;SDS011;9760;50.944;5.304;2023-05-16T14:55:08;3.83;;;1.10;;
19251;SDS011;9760;50.944;5.304;2023-05-16T14:57:35;5.80;;;1.53;;
19251;SDS011;9760;50.944;5.304;2023-05-16T15:00:01;4.73;;;1.40;;
19251;SDS011;9760;50.944;5.304;2023-05-16T15:02:26;6.70;;;1.40;;
19251;SDS011;9760;50.944;5.304;2023-05-16T15:04:52;5.93;;;1.27;;
19251;SDS011;9760;50.944;5.304;2023-05-16T15:07:18;5.53;;;1.37;;
19251;SDS011;9760;50.944;5.304;2023-05-16T15:09:44;2.33;;;1.20;;
19251;SDS011;9760;50.944;5.304;2023-05-16T15:12:10;7.50;;;1.60;;
19251;SDS011;9760;50.944;5.304;2023-05-16T15:14:38;3.57;;;1.13;;
19251;SDS011;9760;50.944;5.304;2023-05-16T15:17:04;5.30;;;1.23;;
19251;SDS011;9760;50.944;5.304;2023-05-16T15:19:30;4.00;;;1.40;;